Sembria — V2QG7 — position and weather

sailwx.info

Track history (hours):
 
Tides and Currents Weather Stations Pressure Air Temp Water Temp Dewpoint Dewpoint Depression Visibility Wind Speed Wind Dir Waves Ship Positions

Sembria

Last reported at 2014-Jul-10 09:32 UTC. Time now 2014-Jul-24 19:20 UTC.
Position N 38°30' E 025°38'.
Warning: this ship's position is 14 days out of date.

Length 107 m; draft 6.3 m.

Type: Cargo ship. MMSI: 304010760.

Date/timePositionNaut miles runAvg speedWind from/ knotsBaromVisibWave heightAir tempDewpointWater temp
2014-Jul-10 09:32N 38°30' E 025°38'21 9.9
2014-Jul-10 07:25N 38°18' E 025°16'46 9.5
2014-Jul-10 02:33N 37°45' E 024°34'9 9.2
2014-Jul-10 01:33N 37°36' E 024°30'1210.0
2014-Jul-10 00:19N 37°26' E 024°20'16 9.1
2014-Jul-09 22:31N 37°13' E 024°09'9 9.1
2014-Jul-09 21:33N 37°06' E 024°02'9 9.3
2014-Jul-09 20:33N 36°59' E 023°55'14 9.6
2014-Jul-09 19:06N 36°48' E 023°44'510.0
2014-Jul-09 18:33N 36°44' E 023°39'10 9.8
2014-Jul-09 17:30N 36°36' E 023°31'10 9.6
2014-Jul-09 16:27N 36°28' E 023°23'  
Track history (hours):
 
Tides and Currents Weather Stations Pressure Air Temp Water Temp Dewpoint Dewpoint Depression Visibility Wind Speed Wind Dir Waves Ship Positions

Sembria

Last reported at 2014-Jul-10 09:32 UTC. Time now 2014-Jul-24 19:20 UTC.
Position N 38°30' E 025°38'.
Warning: this ship's position is 14 days out of date.

Length 107 m; draft 6.3 m.

Type: Cargo ship. MMSI: 304010760.

Date/timePositionNaut miles runAvg speedWind from/ knotsBaromVisibWave heightAir tempDewpointWater temp
2014-Jul-10 09:32N 38°30' E 025°38'21 9.9
2014-Jul-10 07:25N 38°18' E 025°16'46 9.5
2014-Jul-10 02:33N 37°45' E 024°34'9 9.2
2014-Jul-10 01:33N 37°36' E 024°30'1210.0
2014-Jul-10 00:19N 37°26' E 024°20'16 9.1
2014-Jul-09 22:31N 37°13' E 024°09'9 9.1
2014-Jul-09 21:33N 37°06' E 024°02'9 9.3
2014-Jul-09 20:33N 36°59' E 023°55'14 9.6
2014-Jul-09 19:06N 36°48' E 023°44'510.0
2014-Jul-09 18:33N 36°44' E 023°39'10 9.8
2014-Jul-09 17:30N 36°36' E 023°31'10 9.6
2014-Jul-09 16:27N 36°28' E 023°23'  

Dump ship's entire track history